M I D A S
Marine Information and Data Acquisition System
Tripno 1737 of the Zeeleeuw from 2009-07-23 07:29:28 to 2009-07-23 14:44:42
Back to CruiseResearch ActivitiesStationsMapUnderway DataData graphs

EquipmentUnitsComment
TimeDGPSUTC
LatitudeDGPSDM.mWGS84
LongitudeDGPSDM.mWGS84
TemperatureSBE03/SBE38deg celciusITS90
ConductivitySBE21S/mITS90
SalinitySBE21 Practical Salinity Units
ChlorophylAChelsea fluorimeterg/lCalibrated in Aceton
Missing or incorrect values are displayed as -999
Sea surface data collected by the RV Zeeleeuw from 2009-07-23 07:24:28 to 2009-07-23 14:51:59
Time Latitude Longitude Temperature Conductivity Salinity ChlorophylA
2009-07-23 07:25:33 51°13.679 2°55.905 22.2138 2.352963 15.721474 31.768866
2009-07-23 07:26:33 51°13.697 2°55.823 22.2002 2.352757 15.721938 31.768866
2009-07-23 07:27:31 51°13.696 2°55.76 22.2045 2.352654 15.722029 31.734042
2009-07-23 07:28:30 51°13.699 2°55.739 22.2544 2.35255 15.722967 31.734042
2009-07-23 07:29:29 51°13.747 2°55.709 22.2158 2.352447 15.722493 31.699218
2009-07-23 07:30:29 51°13.864 2°55.608 22.2146 2.35224 15.721547 31.664394
2009-07-23 07:31:29 51°14.005 2°55.5 22.246 2.352033 15.721446 31.62957
2009-07-23 07:32:29 51°14.146 2°55.389 22.2764 2.351827 15.721628 31.62957
2009-07-23 07:33:29 51°14.267 2°55.24 22.2642 2.35162 15.721246 31.594746
2009-07-23 07:34:29 51°14.377 2°55.05 22.2093 2.35162 15.721246 31.559922
2009-07-23 07:35:29 51°14.512 2°54.874 22.2225 2.351413 15.721428 31.559922
2009-07-23 07:36:29 51°14.666 2°54.714 22.2582 2.351207 15.721046 31.490274
2009-07-23 07:37:29 51°14.825 2°54.551 22.2854 2.351 15.720099 31.490274
2009-07-23 07:38:29 51°14.987 2°54.404 22.2922 2.351 15.721511 31.490274
2009-07-23 07:39:29 51°15.149 2°54.258 22.2973 2.350793 15.720563 31.420626
2009-07-23 07:40:29 51°15.31 2°54.11 22.2946 2.35069 15.721502 31.420626
2009-07-23 07:41:29 51°15.474 2°53.967 22.2926 2.350483 15.721119 31.385802
2009-07-23 07:42:29 51°15.636 2°53.816 22.2928 2.35038 15.721776 31.385802
2009-07-23 07:43:29 51°15.799 2°53.666 22.3084 2.350173 15.721393 31.316154
2009-07-23 07:44:29 51°15.963 2°53.515 22.3039 2.349967 15.720728 31.316154
2009-07-23 07:45:29 51°16.123 2°53.355 22.3301 2.34976 15.720063 31.28133
2009-07-23 07:46:29 51°16.282 2°53.196 22.2995 2.349657 15.721002 31.28133
2009-07-23 07:47:29 51°16.443 2°53.043 22.3277 2.34945 15.724013 31.246506
2009-07-23 07:48:29 51°16.605 2°52.895 22.3266 2.349347 15.728914 31.246506
2009-07-23 07:49:29 51°16.764 2°52.746 22.3131 2.34914 15.733628 31.211682
2009-07-23 07:50:29 51°16.919 2°52.603 22.3255 2.348934 15.727018 31.176857
2009-07-23 07:51:29 51°17.074 2°52.457 22.3403 2.348624 15.728992 31.176857
2009-07-23 07:52:29 51°17.232 2°52.322 22.3485 2.34852 15.73645 31.142033
2009-07-23 07:53:29 51°17.392 2°52.192 22.3661 2.34821 15.738713 31.107209
2009-07-23 07:54:29 51°17.551 2°52.062 22.3629 2.347901 15.743531 31.072385
2009-07-23 07:55:29 51°17.708 2°51.929 22.3682 2.347694 15.758495 31.037561
2009-07-23 07:56:29 51°17.866 2°51.797 22.3781 2.347384 15.749395 31.037561
2009-07-23 07:57:29 51°18.024 2°51.663 22.3746 2.346971 15.747497 31.002737
2009-07-23 07:58:29 51°18.186 2°51.534 22.369 2.346661 15.755172 31.002737
2009-07-23 07:59:29 51°18.348 2°51.399 22.3878 2.345937 15.747584 30.967913
2009-07-23 08:00:29 51°18.508 2°51.26 22.3812 2.345007 15.754123 30.933089
2009-07-23 08:01:29 51°18.668 2°51.118 22.4182 2.344904 15.76419 30.933089
2009-07-23 08:02:29 51°18.823 2°50.96 22.4086 2.344594 15.75792 30.898265
2009-07-23 08:03:29 51°18.976 2°50.791 22.4132 2.343871 15.759155 30.863441
2009-07-23 08:04:29 51°19.129 2°50.624 22.4043 2.343458 15.767241 30.863441
2009-07-23 08:05:29 51°19.284 2°50.462 22.4189 2.342527 15.750414 30.793793
2009-07-23 08:06:29 51°19.44 2°50.299 22.4303 2.341804 15.743668 30.793793
2009-07-23 08:07:29 51°19.598 2°50.138 22.4422 2.341494 15.750222 30.758969
2009-07-23 08:08:29 51°19.758 2°49.977 22.4447 2.340771 15.74775 30.724145
2009-07-23 08:09:29 51°19.916 2°49.812 22.4664 2.340358 15.773276 30.724145
2009-07-23 08:10:29 51°20.068 2°49.629 22.4569 2.339737 15.746132 30.689321
2009-07-23 08:11:29 51°20.218 2°49.441 22.4659 2.339221 15.747463 30.654497
2009-07-23 08:12:29 51°20.367 2°49.249 22.4666 2.339014 15.75108 30.654497
2009-07-23 08:13:29 51°20.516 2°49.059 22.4622 2.338291 15.74518 30.619673
2009-07-23 08:14:29 51°20.666 2°48.873 22.4941 2.337671 15.746037 30.550024
2009-07-23 08:15:29 51°20.816 2°48.685 22.5085 2.336741 15.740326 30.584849
2009-07-23 08:16:29 51°20.966 2°48.496 22.51 2.336741 15.746324 30.550024
2009-07-23 08:17:29 51°21.118 2°48.313 22.5149 2.336017 15.744706 30.5152
2009-07-23 08:18:29 51°21.271 2°48.129 22.5319 2.335604 15.759971 30.480376
2009-07-23 08:19:29 51°21.424 2°47.939 22.5235 2.334984 15.742231 30.445552
2009-07-23 08:20:29 51°21.579 2°47.752 22.5317 2.334777 15.738135 30.445552
2009-07-23 08:21:29 51°21.735 2°47.572 22.5503 2.33426 15.726901 30.410728
2009-07-23 08:22:29 51°21.891 2°47.392 22.5492 2.333537 15.731847 30.375904
2009-07-23 08:23:29 51°22.046 2°47.214 22.5577 2.333021 15.735467 30.34108
2009-07-23 08:24:29 51°22.198 2°47.035 22.5715 2.332194 15.730511 30.34108
2009-07-23 08:25:29 51°22.346 2°46.853 22.5701 2.331574 15.73051 30.306256
2009-07-23 08:26:29 51°22.495 2°46.672 22.588 2.331367 15.730701 30.271432
2009-07-23 08:27:29 51°22.644 2°46.491 22.5891 2.330747 15.725838 30.236608
2009-07-23 08:28:29 51°22.794 2°46.311 22.6013 2.330024 15.728507 30.201784
2009-07-23 08:29:29 51°22.945 2°46.132 22.5868 2.329714 15.727076 30.16696
2009-07-23 08:30:29 51°23.095 2°45.951 22.597 2.328887 15.725263 30.16696
2009-07-23 08:31:29 51°23.243 2°45.766 22.6055 2.328164 15.713057 30.097312
2009-07-23 08:32:28 51°23.388 2°45.586 22.6221 2.327957 15.70696 30.097312
2009-07-23 08:33:29 51°23.536 2°45.398 22.6298 2.327027 15.700667 30.062488
2009-07-23 08:34:29 51°23.683 2°45.212 22.6289 2.326717 15.703519 30.062488
2009-07-23 08:35:29 51°23.829 2°45.026 22.6229 2.3262 15.703133 30.027664
2009-07-23 08:36:28 51°23.981 2°44.977 22.6194 2.326613 15.708186 29.99284
2009-07-23 08:37:29 51°24.136 2°45.07 22.651 2.32527 15.697122 29.99284
2009-07-23 08:38:29 51°24.279 2°45.194 22.6671 2.324857 15.706648 29.99284
2009-07-23 08:39:29 51°24.393 2°45.38 22.6714 2.323513 15.689576 29.958016
2009-07-23 08:40:29 51°24.476 2°45.605 22.6759 2.323307 15.692907 29.923192
2009-07-23 08:41:29 51°24.55 2°45.84 22.6906 2.32341 15.697959 29.888367
2009-07-23 08:42:29 51°24.647 2°46.054 22.6942 2.32186 15.693652 29.818719
2009-07-23 08:43:29 51°24.749 2°46.26 22.7205 2.32186 15.693938 29.783895
2009-07-23 08:44:29 51°24.849 2°46.468 22.6934 2.321653 15.69241 29.749071
2009-07-23 08:45:29 51°24.936 2°46.691 22.7163 2.320517 15.686294 29.714247
2009-07-23 08:46:29 51°25.022 2°46.919 22.7238 2.320827 15.6883 29.679423
2009-07-23 08:47:29 51°25.106 2°47.151 22.7196 2.320413 15.683814 29.644599
2009-07-23 08:48:29 51°25.192 2°47.38 22.7449 2.320103 15.682094 29.609775
2009-07-23 08:49:29 51°25.279 2°47.608 22.744 2.319897 15.684283 29.609775
2009-07-23 08:50:29 51°25.367 2°47.834 22.7771 2.318967 15.676548 29.574951
2009-07-23 08:51:29 51°25.456 2°48.059 22.7682 2.31907 15.676169 29.540127
2009-07-23 08:52:29 51°25.542 2°48.288 22.7563 2.318657 15.678831 29.505303
2009-07-23 08:53:29 51°25.626 2°48.515 22.7588 2.31845 15.677874 29.435655
2009-07-23 08:54:29 51°25.713 2°48.741 22.7967 2.317003 15.667746 29.435655
2009-07-23 08:55:29 51°25.799 2°48.966 22.7902 2.317416 15.66823 29.366007
2009-07-23 08:56:29 51°25.89 2°49.189 22.7835 2.317106 15.667367 29.331183
2009-07-23 08:57:29 51°25.978 2°49.413 22.8047 2.31659 15.667261 29.366007
2009-07-23 08:58:29 51°26.065 2°49.638 22.8201 2.316486 15.66764 29.296359
2009-07-23 08:59:29 51°26.154 2°49.861 22.8257 2.316073 15.666012 29.261534
2009-07-23 09:00:29 51°26.241 2°50.088 22.826 2.315866 15.664197 29.22671
2009-07-23 09:01:29 51°26.327 2°50.317 22.8356 2.315763 15.664576 29.22671
2009-07-23 09:02:29 51°26.416 2°50.543 22.8404 2.315246 15.65961 29.191886
2009-07-23 09:03:29 51°26.504 2°50.769 22.8726 2.314626 15.658167 29.122238
2009-07-23 09:04:29 51°26.592 2°50.996 22.8506 2.314833 15.664557 29.122238
2009-07-23 09:05:29 51°26.68 2°51.226 22.8722 2.314626 15.661884 29.087414
2009-07-23 09:06:29 51°26.766 2°51.459 22.8948 2.31442 15.660926 29.05259
2009-07-23 09:07:29 51°26.854 2°51.689 22.8863 2.314523 15.664265 29.017766
2009-07-23 09:08:29 51°26.942 2°51.921 22.8791 2.314213 15.662829 28.948118
2009-07-23 09:09:29 51°27.027 2°52.152 22.9067 2.3138 15.660055 28.948118
2009-07-23 09:10:29 51°27.111 2°52.382 22.9271 2.31349 15.652328 28.948118
2009-07-23 09:11:29 51°27.196 2°52.614 22.9048 2.313593 15.655094 28.87847
2009-07-23 09:12:29 51°27.279 2°52.846 22.9523 2.31287 15.662899 28.87847
2009-07-23 09:13:29 51°27.363 2°53.079 22.9119 2.31318 15.66405 28.843646
2009-07-23 09:14:29 51°27.446 2°53.31 22.9175 2.312767 15.662133 28.808822
2009-07-23 09:15:29 51°27.531 2°53.537 22.9506 2.312663 15.664232 28.773998
2009-07-23 09:16:29 51°27.615 2°53.766 22.9736 2.31256 15.666617 28.739174
2009-07-23 09:17:29 51°27.7 2°53.992 22.9513 2.31225 15.662601 28.70435
2009-07-23 09:18:29 51°27.782 2°54.22 22.962 2.31225 15.659738 28.634702
2009-07-23 09:19:29 51°27.864 2°54.449 22.9943 2.311733 15.655625 28.669526
2009-07-23 09:20:29 51°27.945 2°54.68 23.0125 2.311423 15.656191 28.634702
2009-07-23 09:21:29 51°28.028 2°54.909 23.0135 2.311217 15.655232 28.565053
2009-07-23 09:22:29 51°28.112 2°55.136 23.0207 2.311423 15.655046 28.565053
2009-07-23 09:23:29 51°28.196 2°55.362 22.9886 2.310907 15.653508 28.495405
2009-07-23 09:24:29 51°28.279 2°55.59 23.022 2.3107 15.653408 28.460581
2009-07-23 09:25:29 51°28.362 2°55.815 23.0412 2.310803 15.65446 28.460581
2009-07-23 09:26:29 51°28.45 2°56.036 23.0233 2.310597 15.652929 28.425757
2009-07-23 09:27:29 51°28.534 2°56.26 23.0609 2.310287 15.651491 28.425757
2009-07-23 09:28:29 51°28.618 2°56.485 23.0261 2.31039 15.652543 28.390933
2009-07-23 09:29:29 51°28.701 2°56.714 23.0668 2.309873 15.648714 28.390933
2009-07-23 09:30:29 51°28.785 2°56.941 23.0786 2.310183 15.653588 28.356109
2009-07-23 09:31:29 51°28.869 2°57.166 23.0764 2.309667 15.649473 28.286461
2009-07-23 09:32:29 51°28.956 2°57.388 23.1017 2.30977 15.651098 28.286461
2009-07-23 09:33:29 51°29.042 2°57.612 23.0974 2.30946 15.651091 28.251637
2009-07-23 09:34:29 51°29.129 2°57.837 23.0992 2.309357 15.650612 28.216813
2009-07-23 09:35:29 51°29.218 2°58.061 23.1081 2.30915 15.64908 28.181989
2009-07-23 09:36:29 51°29.306 2°58.285 23.1286 2.309253 15.646696 28.147165
2009-07-23 09:37:29 51°29.395 2°58.508 23.1323 2.30884 15.643633 28.147165
2009-07-23 09:38:29 51°29.481 2°58.734 23.1407 2.309046 15.64402 28.112341
2009-07-23 09:39:29 51°29.568 2°58.961 23.1721 2.308736 15.643154 28.077517
2009-07-23 09:40:29 51°29.654 2°59.188 23.13 2.308633 15.644678 28.042693
2009-07-23 09:41:29 51°29.739 2°59.412 23.1682 2.308633 15.647828 28.007869
2009-07-23 09:42:29 51°29.822 2°59.632 23.1443 2.308013 15.64495 28.007869
2009-07-23 09:43:29 51°29.911 2°59.851 23.1899 2.308323 15.647248 27.973045
2009-07-23 09:44:29 51°29.999 3°0.071 23.1665 2.308013 15.646668 27.93822
2009-07-23 09:45:29 51°30.085 3°0.287 23.2105 2.308013 15.645809 27.93822
2009-07-23 09:46:29 51°30.172 3°0.51 23.1975 2.30822 15.646196 27.903396
2009-07-23 09:47:29 51°30.262 3°0.738 23.2207 2.307703 15.642365 27.868572
2009-07-23 09:48:29 51°30.354 3°0.966 23.2196 2.307807 15.646568 27.798924
2009-07-23 09:49:29 51°30.442 3°1.197 23.2285 2.30729 15.642451 27.798924
2009-07-23 09:50:29 51°30.532 3°1.426 23.2375 2.307083 15.642351 27.7641
2009-07-23 09:51:29 51°30.622 3°1.657 23.2305 2.30729 15.64331 27.729276
2009-07-23 09:52:29 51°30.712 3°1.888 23.2749 2.30698 15.64359 27.694452
2009-07-23 09:53:29 51°30.803 3°2.118 23.2621 2.30698 15.644163 27.694452
2009-07-23 09:54:29 51°30.893 3°2.349 23.2538 2.306773 15.644349 27.694452
2009-07-23 09:55:29 51°30.974 3°2.592 23.2913 2.306773 15.645496 27.624804
2009-07-23 09:56:29 51°31.052 3°2.835 23.2647 2.306877 15.646835 27.58998
2009-07-23 09:57:29 51°31.132 3°3.078 23.2658 2.306567 15.643103 27.555156
2009-07-23 09:58:29 51°31.211 3°3.322 23.3041 2.30636 15.64243 27.520332
2009-07-23 09:59:29 51°31.293 3°3.567 23.3176 2.30636 15.641856 27.485508
2009-07-23 10:00:29 51°31.373 3°3.813 23.322 2.30636 15.644149 27.485508
2009-07-23 10:01:29 51°31.454 3°4.055 23.356 2.30605 15.642709 27.450684
2009-07-23 10:02:29 51°31.532 3°4.296 23.3224 2.305533 15.638876 27.41586
2009-07-23 10:03:29 51°31.61 3°4.539 23.3569 2.305637 15.639356 27.381036
2009-07-23 10:04:29 51°31.696 3°4.773 23.374 2.282489 15.469166 27.346212
2009-07-23 10:05:29 51°31.846 3°4.887 23.4259 2.30543 15.63725 27.346212
2009-07-23 10:06:29 51°32.016 3°4.835 23.3905 2.305017 15.63447 27.311387
2009-07-23 10:07:29 51°32.176 3°4.674 23.412 2.304913 15.63485 27.276563
2009-07-23 10:08:29 51°32.336 3°4.509 23.4093 2.304913 15.634563 27.241739
2009-07-23 10:09:29 51°32.478 3°4.314 23.4398 2.304707 15.633317 27.206915
2009-07-23 10:10:29 51°32.593 3°4.071 23.4221 2.30481 15.636949 27.172091
2009-07-23 10:11:29 51°32.708 3°3.83 23.448 2.304603 15.637708 27.137267
2009-07-23 10:12:29 51°32.821 3°3.589 23.4089 2.304397 15.634168 27.102443
2009-07-23 10:13:29 51°32.934 3°3.35 23.4444 2.3045 15.634362 27.102443
2009-07-23 10:14:29 51°33.041 3°3.109 23.5642 2.304603 15.635988 27.032795
2009-07-23 10:15:29 51°33.016 3°2.819 23.4562 2.30419 15.631775 26.997971
2009-07-23 10:16:29 51°32.914 3°2.526 23.4574 2.303983 15.633394 26.997971
2009-07-23 10:17:29 51°32.805 3°2.236 23.4754 2.303673 15.638261 26.963147
2009-07-23 10:18:29 51°32.698 3°1.945 23.4834 2.30357 15.63692 26.928323
2009-07-23 10:19:29 51°32.595 3°1.651 23.4955 2.303777 15.643332 26.893499
2009-07-23 10:20:29 51°32.488 3°1.358 23.5075 2.303467 15.642178 26.823851
2009-07-23 10:21:29 51°32.378 3°1.064 23.5127 2.303054 15.639969 26.823851
2009-07-23 10:22:29 51°32.268 3°0.768 23.5029 2.30326 15.647248 26.789027
2009-07-23 10:23:29 51°32.162 3°0.47 23.5269 2.302744 15.641973 26.754203
2009-07-23 10:24:29 51°32.056 3°0.174 23.5227 2.302537 15.636706 26.719379
2009-07-23 10:25:29 51°31.949 2°59.88 23.5458 2.302227 15.636413 26.684555
2009-07-23 10:26:29 51°31.845 2°59.583 23.549 2.302123 15.631341 26.64973
2009-07-23 10:27:29 51°31.74 2°59.29 23.5562 2.30233 15.633163 26.64973
2009-07-23 10:28:29 51°31.633 2°59 23.5671 2.30202 15.639184 26.580082
2009-07-23 10:29:29 51°31.529 2°58.707 23.5503 2.301917 15.641862 26.545258
2009-07-23 10:30:29 51°31.426 2°58.417 23.572 2.301814 15.643106 26.510434
2009-07-23 10:31:29 51°31.323 2°58.124 23.5968 2.301504 15.639078 26.47561
2009-07-23 10:32:29 51°31.223 2°57.826 23.5983 2.30202 15.645216 26.47561
2009-07-23 10:33:29 51°31.122 2°57.527 23.6028 2.301194 15.638785 26.440786
2009-07-23 10:34:29 51°31.019 2°57.227 23.5954 2.301297 15.638404 26.405962
2009-07-23 10:35:29 51°30.918 2°56.924 23.6168 2.300987 15.637536 26.371138
2009-07-23 10:36:29 51°30.82 2°56.62 23.6267 2.301194 15.639934 26.336314
2009-07-23 10:37:29 51°30.721 2°56.315 23.6387 2.300884 15.638205 26.30149
2009-07-23 10:38:29 51°30.62 2°56.014 23.6145 2.30109 15.635719 26.30149
2009-07-23 10:39:29 51°30.52 2°55.714 23.6549 2.300987 15.634951 26.266666
2009-07-23 10:40:29 51°30.424 2°55.413 23.6381 2.300884 15.640503 26.231842
2009-07-23 10:41:29 51°30.33 2°55.117 23.6534 2.300677 15.639542 26.197018
2009-07-23 10:42:29 51°30.239 2°54.821 23.6426 2.300367 15.635226 26.162194
2009-07-23 10:43:29 51°30.145 2°54.527 23.6706 2.30078 15.635713 26.12737
2009-07-23 10:44:29 51°30.051 2°54.233 23.6935 2.300057 15.63005 26.12737
2009-07-23 10:45:29 51°29.957 2°53.943 23.6955 2.30016 15.635126 26.057722
2009-07-23 10:46:29 51°29.865 2°53.653 23.7198 2.29985 15.63512 26.022897
2009-07-23 10:47:29 51°29.774 2°53.365 23.6817 2.300367 15.639824 26.022897
2009-07-23 10:48:29 51°29.678 2°53.079 23.7097 2.299644 15.635883 26.022897
2009-07-23 10:49:29 51°29.585 2°52.79 23.7284 2.29985 15.630524 25.953249
2009-07-23 10:50:29 51°29.487 2°52.508 23.7292 2.29985 15.633684 25.918425
2009-07-23 10:51:29 51°29.388 2°52.226 23.7414 2.29954 15.636552 25.918425
2009-07-23 10:52:29 51°29.289 2°51.943 23.7394 2.29923 15.629362 25.848777
2009-07-23 10:53:29 51°29.19 2°51.66 23.7456 2.29923 15.631373 25.848777
2009-07-23 10:54:29 51°29.091 2°51.377 23.7649 2.299127 15.630604 25.848777
2009-07-23 10:55:29 51°28.992 2°51.094 23.7567 2.298817 15.630023 25.813953
2009-07-23 10:56:29 51°28.892 2°50.81 23.7827 2.298507 15.628006 25.779129
2009-07-23 10:57:29 51°28.792 2°50.525 23.7785 2.299127 15.633191 25.744305
2009-07-23 10:58:29 51°28.693 2°50.24 23.7884 2.29892 15.635391 25.709481
2009-07-23 10:59:29 51°28.59 2°49.959 23.8119 2.299024 15.635297 25.709481
2009-07-23 11:00:29 51°28.491 2°49.675 23.793 2.298817 15.638073 25.639833
2009-07-23 11:01:29 51°28.393 2°49.392 23.8272 2.299024 15.63846 25.639833
2009-07-23 11:02:29 51°28.294 2°49.109 23.8217 2.29892 15.632229 25.639833
2009-07-23 11:03:29 51°28.199 2°48.823 23.831 2.298817 15.630023 25.605009
2009-07-23 11:04:29 51°28.101 2°48.54 23.8452 2.298507 15.624846 25.570185
2009-07-23 11:05:29 51°28.002 2°48.259 23.8353 2.29861 15.629061 25.570185
2009-07-23 11:06:29 51°27.904 2°47.977 23.8281 2.298404 15.62695 25.500537
2009-07-23 11:07:29 51°27.809 2°47.694 23.8555 2.29799 15.625888 25.500537
2009-07-23 11:08:29 51°27.714 2°47.41 23.8337 2.298714 15.632129 25.465713
2009-07-23 11:09:29 51°27.617 2°47.13 23.8646 2.298197 15.627712 25.430889
2009-07-23 11:10:29 51°27.519 2°46.848 23.8746 2.2983 15.626182 25.430889
2009-07-23 11:11:29 51°27.424 2°46.564 23.879 2.29799 15.623302 25.396065
2009-07-23 11:12:29 51°27.328 2°46.282 23.8799 2.298094 15.625794 25.326416
2009-07-23 11:13:29 51°27.232 2°46.001 23.9025 2.298197 15.629723 25.326416
2009-07-23 11:14:29 51°27.134 2°45.722 23.8965 2.298197 15.630586 25.291592
2009-07-23 11:15:29 51°27.039 2°45.442 23.8767 2.298094 15.630967 25.291592
2009-07-23 11:16:29 51°26.943 2°45.165 23.9083 2.298197 15.630586 25.256768
2009-07-23 11:17:29 51°26.85 2°44.888 23.9113 2.297577 15.635751 25.221944
2009-07-23 11:18:29 51°26.758 2°44.611 23.933 2.29799 15.627324 25.18712
2009-07-23 11:19:29 51°26.665 2°44.335 23.9229 2.29799 15.629048 25.18712
2009-07-23 11:20:29 51°26.577 2°44.057 23.9473 2.298094 15.629817 25.152296
2009-07-23 11:21:29 51°26.492 2°43.78 23.8922 2.296647 15.620494 25.117472
2009-07-23 11:22:29 51°26.507 2°43.488 23.9501 2.297784 15.631823 25.082648
2009-07-23 11:23:29 51°26.592 2°43.235 23.9519 2.29768 15.625593 25.047824
2009-07-23 11:24:29 51°26.726 2°43.028 23.9148 2.297887 15.622247 25.013
2009-07-23 11:25:29 51°26.879 2°42.856 23.9751 2.297577 15.629136 25.013
2009-07-23 11:26:29 51°27.037 2°42.694 23.953 2.297577 15.628273 24.978176
2009-07-23 11:27:29 51°27.196 2°42.534 23.9601 2.297887 15.628567 24.943352
2009-07-23 11:28:29 51°27.364 2°42.415 23.9578 2.297784 15.629811 24.908528
2009-07-23 11:29:29 51°27.548 2°42.396 23.9533 2.297577 15.629136 24.908528
2009-07-23 11:30:29 51°27.681 2°42.602 23.9779 2.297164 15.618879 24.83888
2009-07-23 11:31:29 51°27.783 2°42.873 24.0105 2.297474 15.636133 24.83888
2009-07-23 11:32:29 51°27.881 2°43.151 23.9688 2.297474 15.64074 24.804056
2009-07-23 11:33:29 51°27.98 2°43.429 23.9969 2.297681 15.643718 24.734408
2009-07-23 11:34:29 51°28.08 2°43.708 24.0108 2.297164 15.635265 24.699583
2009-07-23 11:35:29 51°28.18 2°43.99 24.0054 2.297474 15.637572 24.699583
2009-07-23 11:36:29 51°28.28 2°44.274 24.009 2.296647 15.630556 24.629935
2009-07-23 11:37:29 51°28.381 2°44.556 24.0353 2.296957 15.631713 24.629935
2009-07-23 11:38:29 51°28.482 2°44.838 24.0254 2.296854 15.628642 24.595111
2009-07-23 11:39:29 51°28.582 2°45.124 24.0165 2.297164 15.630949 24.525463
2009-07-23 11:40:29 51°28.683 2°45.409 24.0252 2.297164 15.629799 24.525463
2009-07-23 11:41:29 51°28.784 2°45.692 24.0532 2.296957 15.626823 24.490639
2009-07-23 11:42:29 51°28.887 2°45.974 24.0253 2.296854 15.626917 24.455815
2009-07-23 11:43:29 51°28.986 2°46.26 24.0627 2.295924 15.620285 24.420991
2009-07-23 11:44:29 51°29.085 2°46.548 24.0636 2.296544 15.623173 24.420991
2009-07-23 11:45:29 51°29.185 2°46.835 24.0442 2.297164 15.623475 24.351343
2009-07-23 11:46:29 51°29.286 2°47.121 24.0835 2.295924 15.61454 24.351343
2009-07-23 11:47:29 51°29.39 2°47.401 24.0801 2.29706 15.62443 24.316519
2009-07-23 11:48:29 51°29.492 2°47.683 24.0979 2.296234 15.615696 24.281695
2009-07-23 11:49:29 51°29.591 2°47.969 24.0686 2.297267 15.625968 24.246871
2009-07-23 11:50:29 51°29.692 2°48.255 24.1086 2.296957 15.622225 24.212047
2009-07-23 11:51:29 51°29.79 2°48.542 24.1022 2.297267 15.624531 24.177223
2009-07-23 11:52:29 51°29.89 2°48.828 24.1118 2.297164 15.625774 24.177223
2009-07-23 11:53:29 51°29.992 2°49.112 24.1195 2.296957 15.623087 24.142399
2009-07-23 11:54:29 51°30.096 2°49.395 24.101 2.296957 15.623374 24.107575
2009-07-23 11:55:29 51°30.197 2°49.68 24.1151 2.296337 15.618188 24.07275
2009-07-23 11:56:29 51°30.298 2°49.966 24.138 2.29706 15.62127 24.07275
2009-07-23 11:57:29 51°30.398 2°50.254 24.0943 2.297164 15.622326 24.037926
2009-07-23 11:58:29 51°30.502 2°50.538 24.1526 2.296544 15.618002 24.003102
2009-07-23 11:59:29 51°30.605 2°50.824 24.1571 2.296647 15.617047 24.003102
2009-07-23 12:00:29 51°30.708 2°51.113 24.1675 2.296957 15.621363 23.968278
2009-07-23 12:01:29 51°30.81 2°51.403 24.1672 2.296647 15.61877 23.933454
2009-07-23 12:02:29 51°30.913 2°51.692 24.1341 2.296854 15.617723 23.89863
2009-07-23 12:03:29 51°31.017 2°51.98 24.1801 2.29768 15.622146 23.863806
2009-07-23 12:04:29 51°31.121 2°52.267 24.1847 2.297577 15.619655 23.863806
2009-07-23 12:05:29 51°31.224 2°52.556 24.1913 2.296854 15.615139 23.828982
2009-07-23 12:06:29 51°31.329 2°52.845 24.204 2.296854 15.615139 23.794158
2009-07-23 12:07:29 51°31.433 2°53.135 24.1985 2.29737 15.618406 23.794158
2009-07-23 12:08:29 51°31.538 2°53.426 24.1822 2.29737 15.618119 23.759334
2009-07-23 12:09:29 51°31.642 2°53.717 24.2158 2.297887 15.622247 23.72451
2009-07-23 12:10:29 51°31.747 2°54.006 24.2073 2.29706 15.61524 23.689686
2009-07-23 12:11:29 51°31.855 2°54.293 24.2143 2.297474 15.617739 23.689686
2009-07-23 12:12:29 51°31.967 2°54.575 24.2849 2.29706 15.614953 23.654862
2009-07-23 12:13:29 51°32.14 2°54.685 24.2185 2.296853 15.609687 23.620038
2009-07-23 12:14:29 51°32.333 2°54.716 24.2804 2.296957 15.610168 23.585214
2009-07-23 12:15:29 51°32.528 2°54.72 24.265 2.29737 15.615249 23.55039
2009-07-23 12:16:29 51°32.724 2°54.714 24.2758 2.298093 15.616895 23.515566
2009-07-23 12:17:29 51°32.92 2°54.718 24.2678 2.297784 15.619182 23.515566
2009-07-23 12:18:29 51°33.118 2°54.764 24.2523 2.297267 15.61735 23.445918
2009-07-23 12:19:29 51°33.31 2°54.868 24.2849 2.296957 15.609308 23.445918
2009-07-23 12:20:29 51°33.49 2°55.027 24.2866 2.29675 15.613796 23.411093
2009-07-23 12:21:29 51°33.639 2°55.257 24.2427 2.296647 15.613602 23.341445
2009-07-23 12:22:29 51°33.633 2°55.568 24.2859 2.29799 15.633361 23.341445
2009-07-23 12:23:29 51°33.575 2°55.89 24.2731 2.297784 15.632111 23.306621
2009-07-23 12:24:29 51°33.525 2°56.217 24.3072 2.297267 15.621658 23.271797
2009-07-23 12:25:29 51°33.495 2°56.547 24.3209 2.297887 15.625119 23.236973
2009-07-23 12:26:29 51°33.504 2°56.881 24.304 2.296234 15.615984 23.167325
2009-07-23 12:27:29 51°33.527 2°57.213 24.3234 2.29737 15.622713 23.167325
2009-07-23 12:28:29 51°33.547 2°57.547 24.3412 2.297267 15.623669 23.132501
2009-07-23 12:29:29 51°33.582 2°57.876 24.342 2.296854 15.619446 23.097677
2009-07-23 12:30:29 51°33.629 2°58.204 24.3336 2.298197 15.624552 23.062853
2009-07-23 12:31:29 51°33.686 2°58.53 24.3458 2.296647 15.615324 23.028029
2009-07-23 12:32:29 51°33.749 2°58.853 24.3482 2.298714 15.627819 23.028029
2009-07-23 12:33:29 51°33.814 2°59.177 24.3658 2.297473 15.614295 22.993205
2009-07-23 12:34:29 51°33.88 2°59.5 24.3293 2.298197 15.619384 22.958381
2009-07-23 12:35:29 51°33.88 2°59.832 24.3617 2.297887 15.622534 22.923557
2009-07-23 12:36:29 51°33.778 3°0.113 24.3556 2.298507 15.626857 22.888733
2009-07-23 12:37:29 51°33.614 3°0.284 24.3493 2.2983 15.620439 22.853909
2009-07-23 12:38:29 51°33.428 3°0.306 24.373 2.298507 15.622262 22.853909
2009-07-23 12:39:29 51°33.252 3°0.232 24.3855 2.29799 15.620718 22.819085
2009-07-23 12:40:29 51°33.079 3°0.141 24.4009 2.298507 15.620827 22.78426
2009-07-23 12:41:29 51°32.909 3°0.047 24.3938 2.298197 15.623403 22.714612
2009-07-23 12:42:29 51°32.741 2°59.951 24.4011 2.298507 15.625421 22.679788
2009-07-23 12:43:29 51°32.575 2°59.859 24.4101 2.29799 15.613832 22.679788
2009-07-23 12:44:29 51°32.409 2°59.763 24.4039 2.298714 15.622076 22.644964
2009-07-23 12:45:29 51°32.244 2°59.667 24.4352 2.298094 15.630104 22.644964
2009-07-23 12:46:29 51°32.081 2°59.573 24.4213 2.29892 15.636828 22.575316
2009-07-23 12:47:29 51°31.92 2°59.485 24.4195 2.298507 15.623985 22.575316
2009-07-23 12:48:29 51°31.761 2°59.401 24.4224 2.29613 15.6089 22.540492
2009-07-23 12:49:29 51°31.603 2°59.319 24.4464 2.298093 15.61546 22.505668
2009-07-23 12:50:29 51°31.446 2°59.238 24.4538 2.297887 15.615932 22.470844
2009-07-23 12:51:29 51°31.289 2°59.156 24.4772 2.299023 15.619215 22.470844
2009-07-23 12:52:29 51°31.133 2°59.071 24.4488 2.2983 15.617857 22.43602
2009-07-23 12:53:29 51°30.98 2°58.985 24.4785 2.298507 15.627144 22.401196
2009-07-23 12:54:29 51°30.827 2°58.897 24.4909 2.29861 15.613277 22.401196
2009-07-23 12:55:29 51°30.674 2°58.804 24.4907 2.297783 15.611436 22.366372
2009-07-23 12:56:29 51°30.521 2°58.714 24.4952 2.2983 15.619004 22.331548
2009-07-23 12:57:29 51°30.367 2°58.624 24.5101 2.299024 15.628974 22.331548
2009-07-23 12:58:29 51°30.212 2°58.537 24.4775 2.299127 15.622565 22.2619
2009-07-23 12:59:29 51°30.054 2°58.465 24.4967 2.29861 15.624466 22.2619
2009-07-23 13:00:29 51°29.895 2°58.391 24.5046 2.297887 15.611344 22.227076
2009-07-23 13:01:29 51°29.738 2°58.313 24.5157 2.299334 15.625249 22.227076
2009-07-23 13:02:29 51°29.579 2°58.235 24.5142 2.298403 15.615469 22.192252
2009-07-23 13:03:29 51°29.422 2°58.155 24.5269 2.299023 15.621797 22.157428
2009-07-23 13:04:29 51°29.273 2°58.079 24.4985 2.297577 15.607321 22.157428
2009-07-23 13:05:29 51°29.12 2°58.007 24.5156 2.299127 15.611956 22.087779
2009-07-23 13:06:29 51°28.967 2°57.935 24.5322 2.299127 15.623426 22.052955
2009-07-23 13:07:29 51°28.814 2°57.863 24.5422 2.297783 15.610863 21.983307
2009-07-23 13:08:29 51°28.661 2°57.789 24.4627 2.30016 15.615903 21.809187
2009-07-23 13:09:29 51°28.507 2°57.718 24.488 2.300264 15.628715 21.774363
2009-07-23 13:10:29 51°28.354 2°57.643 24.493 2.299747 15.615127 21.739539
2009-07-23 13:11:29 51°28.201 2°57.568 24.5012 2.300057 15.616855 21.704715
2009-07-23 13:12:29 51°28.049 2°57.492 24.4984 2.299747 15.616273 21.704715
2009-07-23 13:13:29 51°27.897 2°57.415 24.5079 2.298816 15.60135 21.669891
2009-07-23 13:14:29 51°27.744 2°57.34 24.5001 2.29861 15.611557 21.669891
2009-07-23 13:15:29 51°27.591 2°57.264 24.5061 2.298713 15.601728 21.635067
2009-07-23 13:16:29 51°27.439 2°57.188 24.519 2.298093 15.598843 21.635067
2009-07-23 13:17:29 51°27.285 2°57.109 24.5121 2.298196 15.601041 21.635067
2009-07-23 13:18:29 51°27.133 2°57.031 24.5169 2.297473 15.598533 21.600243
2009-07-23 13:19:29 51°26.979 2°56.957 24.5215 2.29706 15.599473 21.565419
2009-07-23 13:20:29 51°26.824 2°56.886 24.5261 2.297267 15.600148 21.565419
2009-07-23 13:21:29 51°26.668 2°56.811 24.5294 2.29768 15.601213 21.565419
2009-07-23 13:22:29 51°26.511 2°56.73 24.5312 2.296853 15.594216 21.530595
2009-07-23 13:23:29 51°26.352 2°56.65 24.5363 2.296543 15.585909 21.565419
2009-07-23 13:24:29 51°26.193 2°56.573 24.54 2.29644 15.585713 21.530595
2009-07-23 13:25:29 51°26.034 2°56.496 24.5463 2.29613 15.585986 21.530595
2009-07-23 13:26:29 51°25.876 2°56.416 24.5488 2.295923 15.582165 21.530595
2009-07-23 13:27:29 51°25.717 2°56.338 24.5563 2.295923 15.577593 21.495771
2009-07-23 13:28:29 51°25.558 2°56.256 24.5585 2.295716 15.577773 21.495771
2009-07-23 13:29:29 51°25.399 2°56.178 24.563 2.29582 15.576826 21.495771
2009-07-23 13:30:29 51°25.239 2°56.102 24.5646 2.295923 15.579021 21.530595
2009-07-23 13:31:29 51°25.079 2°56.024 24.5648 2.295923 15.575308 21.530595
2009-07-23 13:32:29 51°24.92 2°55.953 24.5724 2.296646 15.585532 21.495771
2009-07-23 13:33:29 51°24.763 2°55.878 24.5718 2.295716 15.577202 21.495771
2009-07-23 13:34:29 51°24.607 2°55.806 24.5775 2.296336 15.570952 21.530595
2009-07-23 13:35:29 51°24.452 2°55.732 24.5795 2.295509 15.567105 21.530595
2009-07-23 13:36:29 51°24.298 2°55.647 24.5847 2.29613 15.576841 21.530595
2009-07-23 13:37:29 51°24.145 2°55.56 24.5873 2.295613 15.575864 21.530595
2009-07-23 13:38:29 51°23.995 2°55.475 24.5891 2.295303 15.570423 21.530595
2009-07-23 13:39:29 51°23.844 2°55.389 24.5949 2.295096 15.567178 21.530595
2009-07-23 13:40:29 51°23.693 2°55.302 24.5993 2.295406 15.567479 21.565419
2009-07-23 13:41:29 51°23.541 2°55.215 24.6031 2.295303 15.564431 21.565419
2009-07-23 13:42:29 51°23.391 2°55.135 24.6082 2.294786 15.559744 21.565419
2009-07-23 13:43:29 51°23.256 2°55.015 24.614 2.295819 15.565695 21.565419
2009-07-23 13:44:30 51°23.122 2°54.887 24.6157 2.295096 15.550931 21.565419
2009-07-23 13:45:29 51°22.993 2°54.762 24.6194 2.295096 15.556912 21.565419
2009-07-23 13:46:29 51°22.86 2°54.641 24.6235 2.295199 15.558818 21.600243
2009-07-23 13:47:29 51°22.726 2°54.514 24.6263 2.295613 15.558177 21.600243
2009-07-23 13:48:29 51°22.59 2°54.393 24.6316 2.295819 15.558569 21.600243
2009-07-23 13:49:29 51°22.454 2°54.27 24.6354 2.295923 15.560475 21.600243
2009-07-23 13:50:29 51°22.317 2°54.15 24.6394 2.296129 15.563146 21.635067
2009-07-23 13:51:29 51°22.18 2°54.024 24.6438 2.295406 15.560065 21.600243
2009-07-23 13:52:29 51°22.041 2°53.895 24.65 2.295716 15.561223 21.635067
2009-07-23 13:53:29 51°21.901 2°53.769 24.6534 2.295509 15.553993 21.669891
2009-07-23 13:54:29 51°21.76 2°53.641 24.6558 2.296543 15.564215 21.669891
2009-07-23 13:55:29 51°21.616 2°53.524 24.6621 2.295716 15.556094 21.669891
2009-07-23 13:56:29 51°21.458 2°53.442 24.6681 2.295716 15.556379 21.669891
2009-07-23 13:57:29 51°21.298 2°53.358 24.6704 2.296439 15.562309 21.669891
2009-07-23 13:58:29 51°21.137 2°53.272 24.6762 2.295819 15.551451 21.669891
2009-07-23 13:59:29 51°20.978 2°53.18 24.6798 2.296852 15.557112 21.704715
2009-07-23 14:00:29 51°20.818 2°53.089 24.682 2.296336 15.550724 21.669891
2009-07-23 14:01:29 51°20.658 2°52.999 24.6894 2.296956 15.554747 21.704715
2009-07-23 14:02:29 51°20.497 2°52.909 24.6899 2.296232 15.549106 21.704715
2009-07-23 14:03:29 51°20.328 2°52.85 24.6959 2.296749 15.556347 21.704715
2009-07-23 14:04:29 51°20.156 2°52.825 24.6987 2.297059 15.554658 21.704715
2009-07-23 14:05:29 51°19.984 2°52.797 24.7055 2.296956 15.554462 21.704715
2009-07-23 14:06:29 51°19.813 2°52.767 24.7092 2.297059 15.548686 21.739539
2009-07-23 14:07:29 51°19.644 2°52.732 24.7138 2.296955 15.545647 21.704715
2009-07-23 14:08:29 51°19.476 2°52.701 24.7174 2.298092 15.548092 21.704715
2009-07-23 14:09:29 51°19.309 2°52.671 24.7161 2.297162 15.547745 21.739539
2009-07-23 14:10:29 51°19.142 2°52.637 24.7275 2.297059 15.547265 21.739539
2009-07-23 14:11:29 51°18.975 2°52.604 24.7284 2.297679 15.553275 21.739539
2009-07-23 14:12:29 51°18.808 2°52.569 24.7348 2.297679 15.550717 21.739539
2009-07-23 14:13:29 51°18.64 2°52.533 24.7423 2.297989 15.551874 21.739539
2009-07-23 14:14:29 51°18.472 2°52.494 24.7407 2.298712 15.556943 21.739539
2009-07-23 14:15:29 51°18.305 2°52.45 24.7536 2.299022 15.55611 21.739539
2009-07-23 14:16:29 51°18.138 2°52.417 24.7555 2.298609 15.548505 21.739539
2009-07-23 14:17:29 51°17.973 2°52.384 24.763 2.298919 15.54881 21.739539
2009-07-23 14:18:29 51°17.807 2°52.364 24.7668 2.298712 15.550974 21.739539
2009-07-23 14:19:29 51°17.64 2°52.353 24.7706 2.299022 15.55611 21.739539
2009-07-23 14:20:29 51°17.472 2°52.352 24.7714 2.299022 15.554973 21.739539
2009-07-23 14:21:29 51°17.302 2°52.379 24.7654 2.299022 15.551847 21.739539
2009-07-23 14:22:29 51°17.133 2°52.446 24.7898 2.299022 15.539642 21.739539
2009-07-23 14:23:29 51°16.968 2°52.553 24.7881 2.299332 15.543352 21.704715
2009-07-23 14:24:29 51°16.805 2°52.673 24.7921 2.299332 15.545338 21.704715
2009-07-23 14:25:29 51°16.642 2°52.799 24.7988 2.299539 15.54715 21.739539
2009-07-23 14:26:29 51°16.478 2°52.923 24.7968 2.299745 15.547826 21.704715
2009-07-23 14:27:29 51°16.314 2°53.047 24.804 2.299849 15.548306 21.739539
2009-07-23 14:28:29 51°16.151 2°53.179 24.8107 2.299952 15.547651 21.704715
2009-07-23 14:29:29 51°15.99 2°53.318 24.7994 2.299849 15.548023 21.704715
2009-07-23 14:30:29 51°15.828 2°53.454 24.8023 2.300675 15.553283 21.704715
2009-07-23 14:31:29 51°15.664 2°53.584 24.8145 2.300572 15.551383 21.704715
2009-07-23 14:32:29 51°15.5 2°53.716 24.8224 2.301089 15.552081 21.704715
2009-07-23 14:33:29 51°15.337 2°53.851 24.8218 2.301192 15.54944 21.704715
2009-07-23 14:34:30 51°15.172 2°53.989 24.8356 2.300985 15.546779 21.704715
2009-07-23 14:35:29 51°15.019 2°54.147 24.8419 2.301502 15.549462 21.704715
2009-07-23 14:36:29 51°14.871 2°54.328 24.8567 2.301295 15.548219 21.704715
2009-07-23 14:37:29 51°14.726 2°54.518 24.8508 2.301605 15.548524 21.704715
2009-07-23 14:38:29 51°14.581 2°54.709 24.8578 2.301605 15.54569 21.704715
2009-07-23 14:39:29 51°14.439 2°54.909 24.8417 2.301812 15.543533 21.704715
2009-07-23 14:40:29 51°14.318 2°55.134 24.8734 2.302432 15.545561 21.704715
2009-07-23 14:41:29 51°14.213 2°55.322 24.8728 2.302328 15.541683 21.669891
2009-07-23 14:42:29 51°14.093 2°55.458 24.8657 2.302638 15.542556 21.704715
2009-07-23 14:43:30 51°13.956 2°55.552 24.8737 2.302845 15.542666 21.704715
2009-07-23 14:44:29 51°13.837 2°55.632 24.8848 2.303258 15.542037 21.704715
2009-07-23 14:45:29 51°13.739 2°55.731 24.8897 2.303568 15.541495 21.669891
2009-07-23 14:46:29 51°13.692 2°55.842 24.8912 2.303671 15.540278 21.704715
2009-07-23 14:47:29 51°13.671 2°55.934 24.9198 2.303878 15.53954 21.669891
2009-07-23 14:48:29 51°13.664 2°55.956 24.9209 2.304291 15.541175 21.669891
2009-07-23 14:49:29 51°13.661 2°55.96 24.914 2.304601 15.543744 21.669891
2009-07-23 14:50:29 51°13.662 2°55.961 24.9196 2.304808 15.543006 21.669891
2009-07-23 14:51:29 51°13.663 2°55.961 24.9243 2.305015 15.543682 21.669891